sensor_id;sensor_type;location;lat;lon;timestamp;P1;durP1;ratioP1;P2;durP2;ratioP2
33268;SDS011;19640;50.944;5.260;2022-08-14T00:00:42;4.13;;;2.58;;
33268;SDS011;19640;50.944;5.260;2022-08-14T00:03:16;3.38;;;2.28;;
33268;SDS011;19640;50.944;5.260;2022-08-14T00:05:43;2.65;;;2.45;;
33268;SDS011;19640;50.944;5.260;2022-08-14T00:08:08;3.40;;;2.63;;
33268;SDS011;19640;50.944;5.260;2022-08-14T00:10:34;9.95;;;4.03;;
33268;SDS011;19640;50.944;5.260;2022-08-14T00:13:00;4.90;;;3.00;;
33268;SDS011;19640;50.944;5.260;2022-08-14T00:15:27;4.15;;;3.42;;
33268;SDS011;19640;50.944;5.260;2022-08-14T00:17:54;5.82;;;3.22;;
33268;SDS011;19640;50.944;5.260;2022-08-14T00:20:22;3.35;;;3.05;;
33268;SDS011;19640;50.944;5.260;2022-08-14T00:22:51;3.50;;;3.20;;
33268;SDS011;19640;50.944;5.260;2022-08-14T00:25:17;5.55;;;3.15;;
33268;SDS011;19640;50.944;5.260;2022-08-14T00:27:43;6.13;;;3.33;;
33268;SDS011;19640;50.944;5.260;2022-08-14T00:30:10;4.78;;;4.00;;
33268;SDS011;19640;50.944;5.260;2022-08-14T00:32:36;10.38;;;3.50;;
33268;SDS011;19640;50.944;5.260;2022-08-14T00:35:03;5.43;;;4.13;;
33268;SDS011;19640;50.944;5.260;2022-08-14T00:37:30;4.07;;;3.67;;
33268;SDS011;19640;50.944;5.260;2022-08-14T00:39:56;3.00;;;2.80;;
33268;SDS011;19640;50.944;5.260;2022-08-14T00:42:22;3.38;;;3.08;;
33268;SDS011;19640;50.944;5.260;2022-08-14T00:44:48;3.85;;;3.42;;
33268;SDS011;19640;50.944;5.260;2022-08-14T00:47:15;3.78;;;3.40;;
33268;SDS011;19640;50.944;5.260;2022-08-14T00:49:42;4.75;;;3.08;;
33268;SDS011;19640;50.944;5.260;2022-08-14T00:52:10;3.85;;;3.55;;
33268;SDS011;19640;50.944;5.260;2022-08-14T00:54:37;7.10;;;3.63;;
33268;SDS011;19640;50.944;5.260;2022-08-14T00:57:04;8.30;;;3.42;;
33268;SDS011;19640;50.944;5.260;2022-08-14T00:59:30;4.00;;;3.70;;
33268;SDS011;19640;50.944;5.260;2022-08-14T01:01:57;4.47;;;4.05;;
33268;SDS011;19640;50.944;5.260;2022-08-14T01:04:25;3.67;;;3.33;;
33268;SDS011;19640;50.944;5.260;2022-08-14T01:06:52;3.55;;;3.25;;
33268;SDS011;19640;50.944;5.260;2022-08-14T01:09:19;4.00;;;3.33;;
33268;SDS011;19640;50.944;5.260;2022-08-14T01:11:48;3.80;;;3.50;;
33268;SDS011;19640;50.944;5.260;2022-08-14T01:14:15;6.25;;;3.90;;
33268;SDS011;19640;50.944;5.260;2022-08-14T01:16:42;5.90;;;3.92;;
33268;SDS011;19640;50.944;5.260;2022-08-14T01:19:08;4.05;;;3.67;;
33268;SDS011;19640;50.944;5.260;2022-08-14T01:21:52;4.97;;;3.53;;
33268;SDS011;19640;50.944;5.260;2022-08-14T01:24:18;3.42;;;3.13;;
33268;SDS011;19640;50.944;5.260;2022-08-14T01:26:45;5.65;;;3.35;;
33268;SDS011;19640;50.944;5.260;2022-08-14T01:29:11;5.35;;;3.63;;
33268;SDS011;19640;50.944;5.260;2022-08-14T01:31:37;3.90;;;3.60;;
33268;SDS011;19640;50.944;5.260;2022-08-14T01:34:13;4.68;;;3.47;;
33268;SDS011;19640;50.944;5.260;2022-08-14T01:36:38;5.55;;;3.30;;
33268;SDS011;19640;50.944;5.260;2022-08-14T01:39:06;4.05;;;3.65;;
33268;SDS011;19640;50.944;5.260;2022-08-14T01:41:36;4.05;;;3.75;;
33268;SDS011;19640;50.944;5.260;2022-08-14T01:44:07;4.10;;;3.80;;
33268;SDS011;19640;50.944;5.260;2022-08-14T01:46:38;4.68;;;4.28;;
33268;SDS011;19640;50.944;5.260;2022-08-14T01:49:08;4.93;;;4.53;;
33268;SDS011;19640;50.944;5.260;2022-08-14T01:51:35;6.28;;;4.07;;
33268;SDS011;19640;50.944;5.260;2022-08-14T01:54:07;5.25;;;4.72;;
33268;SDS011;19640;50.944;5.260;2022-08-14T01:56:36;4.20;;;3.90;;
33268;SDS011;19640;50.944;5.260;2022-08-14T01:59:07;5.63;;;3.85;;
33268;SDS011;19640;50.944;5.260;2022-08-14T02:01:39;4.65;;;4.25;;
33268;SDS011;19640;50.944;5.260;2022-08-14T02:04:05;6.05;;;4.55;;
33268;SDS011;19640;50.944;5.260;2022-08-14T02:06:31;4.20;;;3.80;;
33268;SDS011;19640;50.944;5.260;2022-08-14T02:08:57;3.88;;;3.58;;
33268;SDS011;19640;50.944;5.260;2022-08-14T02:11:24;4.28;;;3.88;;
33268;SDS011;19640;50.944;5.260;2022-08-14T02:13:54;4.03;;;3.72;;
33268;SDS011;19640;50.944;5.260;2022-08-14T02:16:26;4.40;;;3.72;;
33268;SDS011;19640;50.944;5.260;2022-08-14T02:19:01;5.75;;;3.30;;
33268;SDS011;19640;50.944;5.260;2022-08-14T02:21:29;5.80;;;4.05;;
33268;SDS011;19640;50.944;5.260;2022-08-14T02:23:57;3.65;;;3.35;;
33268;SDS011;19640;50.944;5.260;2022-08-14T02:26:26;5.15;;;3.92;;
33268;SDS011;19640;50.944;5.260;2022-08-14T02:28:56;7.45;;;4.00;;
33268;SDS011;19640;50.944;5.260;2022-08-14T02:31:27;5.03;;;3.75;;
33268;SDS011;19640;50.944;5.260;2022-08-14T02:34:04;3.22;;;3.03;;
33268;SDS011;19640;50.944;5.260;2022-08-14T02:36:39;4.82;;;4.43;;
33268;SDS011;19640;50.944;5.260;2022-08-14T02:39:06;5.53;;;4.45;;
33268;SDS011;19640;50.944;5.260;2022-08-14T02:41:35;4.63;;;4.22;;
33268;SDS011;19640;50.944;5.260;2022-08-14T02:44:03;4.65;;;3.50;;
33268;SDS011;19640;50.944;5.260;2022-08-14T02:46:30;4.88;;;3.72;;
33268;SDS011;19640;50.944;5.260;2022-08-14T02:48:56;4.75;;;4.35;;
33268;SDS011;19640;50.944;5.260;2022-08-14T02:51:22;5.60;;;4.88;;
33268;SDS011;19640;50.944;5.260;2022-08-14T02:53:49;8.35;;;5.28;;
33268;SDS011;19640;50.944;5.260;2022-08-14T02:56:15;5.53;;;5.05;;
33268;SDS011;19640;50.944;5.260;2022-08-14T02:58:44;5.30;;;4.80;;
33268;SDS011;19640;50.944;5.260;2022-08-14T03:01:15;5.88;;;4.68;;
33268;SDS011;19640;50.944;5.260;2022-08-14T03:03:42;6.82;;;4.45;;
33268;SDS011;19640;50.944;5.260;2022-08-14T03:06:09;5.30;;;4.80;;
33268;SDS011;19640;50.944;5.260;2022-08-14T03:08:36;5.22;;;4.82;;
33268;SDS011;19640;50.944;5.260;2022-08-14T03:11:07;5.10;;;4.70;;
33268;SDS011;19640;50.944;5.260;2022-08-14T03:13:36;5.40;;;5.00;;
33268;SDS011;19640;50.944;5.260;2022-08-14T03:16:05;4.93;;;4.50;;
33268;SDS011;19640;50.944;5.260;2022-08-14T03:18:32;7.20;;;4.45;;
33268;SDS011;19640;50.944;5.260;2022-08-14T03:20:59;5.28;;;4.82;;
33268;SDS011;19640;50.944;5.260;2022-08-14T03:23:26;4.63;;;4.32;;
33268;SDS011;19640;50.944;5.260;2022-08-14T03:25:52;4.68;;;4.35;;
33268;SDS011;19640;50.944;5.260;2022-08-14T03:28:17;4.50;;;4.10;;
33268;SDS011;19640;50.944;5.260;2022-08-14T03:30:43;6.30;;;4.40;;
33268;SDS011;19640;50.944;5.260;2022-08-14T03:33:10;4.28;;;3.97;;
33268;SDS011;19640;50.944;5.260;2022-08-14T03:35:36;4.72;;;4.32;;
33268;SDS011;19640;50.944;5.260;2022-08-14T03:38:07;5.00;;;4.50;;
33268;SDS011;19640;50.944;5.260;2022-08-14T03:40:34;4.90;;;4.60;;
33268;SDS011;19640;50.944;5.260;2022-08-14T03:43:05;4.95;;;4.57;;
33268;SDS011;19640;50.944;5.260;2022-08-14T03:45:32;4.97;;;4.68;;
33268;SDS011;19640;50.944;5.260;2022-08-14T03:48:00;5.45;;;4.95;;
33268;SDS011;19640;50.944;5.260;2022-08-14T03:50:49;4.80;;;4.50;;
33268;SDS011;19640;50.944;5.260;2022-08-14T03:53:15;5.50;;;5.07;;
33268;SDS011;19640;50.944;5.260;2022-08-14T03:55:42;4.38;;;4.07;;
33268;SDS011;19640;50.944;5.260;2022-08-14T03:58:08;4.50;;;4.10;;
33268;SDS011;19640;50.944;5.260;2022-08-14T04:00:35;4.40;;;4.10;;
33268;SDS011;19640;50.944;5.260;2022-08-14T04:03:02;4.82;;;4.43;;
33268;SDS011;19640;50.944;5.260;2022-08-14T04:05:30;5.22;;;4.75;;
33268;SDS011;19640;50.944;5.260;2022-08-14T04:07:56;4.97;;;4.68;;
33268;SDS011;19640;50.944;5.260;2022-08-14T04:10:22;5.03;;;4.60;;
33268;SDS011;19640;50.944;5.260;2022-08-14T04:12:48;18.80;;;5.00;;
33268;SDS011;19640;50.944;5.260;2022-08-14T04:15:14;5.25;;;4.85;;
33268;SDS011;19640;50.944;5.260;2022-08-14T04:17:42;5.88;;;4.28;;
33268;SDS011;19640;50.944;5.260;2022-08-14T04:20:08;5.22;;;4.75;;
33268;SDS011;19640;50.944;5.260;2022-08-14T04:22:34;6.20;;;4.20;;
33268;SDS011;19640;50.944;5.260;2022-08-14T04:25:00;4.70;;;4.30;;
33268;SDS011;19640;50.944;5.260;2022-08-14T04:27:26;5.03;;;4.45;;
33268;SDS011;19640;50.944;5.260;2022-08-14T04:29:53;5.28;;;4.88;;
33268;SDS011;19640;50.944;5.260;2022-08-14T04:32:21;6.72;;;4.78;;
33268;SDS011;19640;50.944;5.260;2022-08-14T04:34:50;5.28;;;4.80;;
33268;SDS011;19640;50.944;5.260;2022-08-14T04:37:18;7.25;;;4.80;;
33268;SDS011;19640;50.944;5.260;2022-08-14T04:40:07;4.57;;;4.28;;
33268;SDS011;19640;50.944;5.260;2022-08-14T04:42:52;6.40;;;4.38;;
33268;SDS011;19640;50.944;5.260;2022-08-14T04:45:37;4.88;;;4.30;;
33268;SDS011;19640;50.944;5.260;2022-08-14T04:48:14;5.30;;;4.90;;
33268;SDS011;19640;50.944;5.260;2022-08-14T04:53:10;5.32;;;4.93;;
33268;SDS011;19640;50.944;5.260;2022-08-14T04:55:38;5.72;;;4.88;;
33268;SDS011;19640;50.944;5.260;2022-08-14T04:58:05;4.18;;;3.83;;
33268;SDS011;19640;50.944;5.260;2022-08-14T05:00:31;5.35;;;4.35;;
33268;SDS011;19640;50.944;5.260;2022-08-14T05:02:57;11.93;;;4.30;;
33268;SDS011;19640;50.944;5.260;2022-08-14T05:05:23;4.47;;;4.18;;
33268;SDS011;19640;50.944;5.260;2022-08-14T05:07:52;19.00;;;6.28;;
33268;SDS011;19640;50.944;5.260;2022-08-14T05:10:17;5.05;;;4.07;;
33268;SDS011;19640;50.944;5.260;2022-08-14T05:12:48;6.47;;;4.90;;
33268;SDS011;19640;50.944;5.260;2022-08-14T05:15:13;4.88;;;4.38;;
33268;SDS011;19640;50.944;5.260;2022-08-14T05:17:40;6.70;;;4.22;;
33268;SDS011;19640;50.944;5.260;2022-08-14T05:20:07;4.88;;;4.38;;
33268;SDS011;19640;50.944;5.260;2022-08-14T05:22:33;5.05;;;4.65;;
33268;SDS011;19640;50.944;5.260;2022-08-14T05:24:59;4.63;;;4.22;;
33268;SDS011;19640;50.944;5.260;2022-08-14T05:27:25;5.22;;;4.72;;
33268;SDS011;19640;50.944;5.260;2022-08-14T05:29:51;4.63;;;4.25;;
33268;SDS011;19640;50.944;5.260;2022-08-14T05:32:19;5.60;;;5.10;;
33268;SDS011;19640;50.944;5.260;2022-08-14T05:34:45;5.00;;;4.47;;
33268;SDS011;19640;50.944;5.260;2022-08-14T05:37:12;4.20;;;3.90;;
33268;SDS011;19640;50.944;5.260;2022-08-14T05:39:38;4.78;;;4.25;;
33268;SDS011;19640;50.944;5.260;2022-08-14T05:42:05;5.38;;;4.20;;
33268;SDS011;19640;50.944;5.260;2022-08-14T05:44:31;4.25;;;3.90;;
33268;SDS011;19640;50.944;5.260;2022-08-14T05:46:58;4.40;;;4.00;;
33268;SDS011;19640;50.944;5.260;2022-08-14T05:49:24;5.70;;;3.85;;
33268;SDS011;19640;50.944;5.260;2022-08-14T05:51:50;5.32;;;4.50;;
33268;SDS011;19640;50.944;5.260;2022-08-14T05:54:16;5.13;;;3.95;;
33268;SDS011;19640;50.944;5.260;2022-08-14T05:56:41;7.30;;;4.10;;
33268;SDS011;19640;50.944;5.260;2022-08-14T05:59:09;4.30;;;3.97;;
33268;SDS011;19640;50.944;5.260;2022-08-14T06:01:35;4.95;;;4.55;;
33268;SDS011;19640;50.944;5.260;2022-08-14T06:04:00;4.65;;;4.25;;
33268;SDS011;19640;50.944;5.260;2022-08-14T06:06:26;4.88;;;4.47;;
33268;SDS011;19640;50.944;5.260;2022-08-14T06:08:52;5.30;;;4.10;;
33268;SDS011;19640;50.944;5.260;2022-08-14T06:11:17;4.10;;;3.72;;
33268;SDS011;19640;50.944;5.260;2022-08-14T06:13:43;5.93;;;3.90;;
33268;SDS011;19640;50.944;5.260;2022-08-14T06:16:09;4.32;;;4.03;;
33268;SDS011;19640;50.944;5.260;2022-08-14T06:18:35;4.57;;;4.15;;
33268;SDS011;19640;50.944;5.260;2022-08-14T06:21:01;4.45;;;3.63;;
33268;SDS011;19640;50.944;5.260;2022-08-14T06:23:28;4.28;;;3.88;;
33268;SDS011;19640;50.944;5.260;2022-08-14T06:25:53;6.53;;;4.22;;
33268;SDS011;19640;50.944;5.260;2022-08-14T06:28:20;4.20;;;3.80;;
33268;SDS011;19640;50.944;5.260;2022-08-14T06:30:47;4.45;;;4.03;;
33268;SDS011;19640;50.944;5.260;2022-08-14T06:33:14;5.95;;;4.60;;
33268;SDS011;19640;50.944;5.260;2022-08-14T06:35:41;4.13;;;3.83;;
33268;SDS011;19640;50.944;5.260;2022-08-14T06:38:07;7.55;;;4.15;;
33268;SDS011;19640;50.944;5.260;2022-08-14T06:40:38;4.35;;;4.00;;
33268;SDS011;19640;50.944;5.260;2022-08-14T06:43:04;3.60;;;3.30;;
33268;SDS011;19640;50.944;5.260;2022-08-14T06:45:33;4.50;;;4.10;;
33268;SDS011;19640;50.944;5.260;2022-08-14T06:47:59;6.32;;;3.95;;
33268;SDS011;19640;50.944;5.260;2022-08-14T06:50:25;6.25;;;4.10;;
33268;SDS011;19640;50.944;5.260;2022-08-14T06:52:52;4.13;;;3.72;;
33268;SDS011;19640;50.944;5.260;2022-08-14T06:55:19;3.90;;;3.60;;
33268;SDS011;19640;50.944;5.260;2022-08-14T06:57:46;3.28;;;3.08;;
33268;SDS011;19640;50.944;5.260;2022-08-14T07:02:46;4.13;;;3.72;;
33268;SDS011;19640;50.944;5.260;2022-08-14T07:05:31;4.18;;;3.42;;
33268;SDS011;19640;50.944;5.260;2022-08-14T07:08:13;3.45;;;3.15;;
33268;SDS011;19640;50.944;5.260;2022-08-14T07:10:44;3.58;;;3.13;;
33268;SDS011;19640;50.944;5.260;2022-08-14T07:13:11;3.08;;;2.72;;
33268;SDS011;19640;50.944;5.260;2022-08-14T07:15:39;3.50;;;3.03;;
33268;SDS011;19640;50.944;5.260;2022-08-14T07:18:06;4.57;;;2.90;;
33268;SDS011;19640;50.944;5.260;2022-08-14T07:20:33;2.42;;;2.22;;
33268;SDS011;19640;50.944;5.260;2022-08-14T07:23:00;3.00;;;2.28;;
33268;SDS011;19640;50.944;5.260;2022-08-14T07:25:28;3.20;;;2.30;;
33268;SDS011;19640;50.944;5.260;2022-08-14T07:27:54;3.75;;;2.58;;
33268;SDS011;19640;50.944;5.260;2022-08-14T07:30:20;2.45;;;2.25;;
33268;SDS011;19640;50.944;5.260;2022-08-14T07:32:46;3.03;;;2.30;;
33268;SDS011;19640;50.944;5.260;2022-08-14T07:35:12;2.30;;;2.08;;
33268;SDS011;19640;50.944;5.260;2022-08-14T07:37:37;2.63;;;2.35;;
33268;SDS011;19640;50.944;5.260;2022-08-14T07:40:03;2.70;;;2.50;;
33268;SDS011;19640;50.944;5.260;2022-08-14T07:42:30;3.40;;;2.20;;
33268;SDS011;19640;50.944;5.260;2022-08-14T07:44:57;2.38;;;2.22;;
33268;SDS011;19640;50.944;5.260;2022-08-14T07:47:23;2.60;;;2.08;;
33268;SDS011;19640;50.944;5.260;2022-08-14T07:49:57;3.72;;;2.42;;
33268;SDS011;19640;50.944;5.260;2022-08-14T07:52:23;2.22;;;1.92;;
33268;SDS011;19640;50.944;5.260;2022-08-14T07:54:49;4.78;;;1.98;;
33268;SDS011;19640;50.944;5.260;2022-08-14T07:57:15;3.22;;;1.90;;
33268;SDS011;19640;50.944;5.260;2022-08-14T07:59:42;2.72;;;1.75;;
33268;SDS011;19640;50.944;5.260;2022-08-14T08:02:09;5.40;;;1.77;;
33268;SDS011;19640;50.944;5.260;2022-08-14T08:04:35;2.35;;;1.52;;
33268;SDS011;19640;50.944;5.260;2022-08-14T08:07:07;2.00;;;1.90;;
33268;SDS011;19640;50.944;5.260;2022-08-14T08:09:33;4.57;;;1.95;;
33268;SDS011;19640;50.944;5.260;2022-08-14T08:12:01;1.95;;;1.77;;
33268;SDS011;19640;50.944;5.260;2022-08-14T08:14:30;1.58;;;1.40;;
33268;SDS011;19640;50.944;5.260;2022-08-14T08:16:58;1.80;;;1.70;;
33268;SDS011;19640;50.944;5.260;2022-08-14T08:19:24;7.65;;;2.08;;
33268;SDS011;19640;50.944;5.260;2022-08-14T08:21:50;2.72;;;1.75;;
33268;SDS011;19640;50.944;5.260;2022-08-14T08:24:16;4.85;;;2.10;;
33268;SDS011;19640;50.944;5.260;2022-08-14T08:26:42;1.70;;;1.60;;
33268;SDS011;19640;50.944;5.260;2022-08-14T08:29:07;2.10;;;1.80;;
33268;SDS011;19640;50.944;5.260;2022-08-14T08:31:44;2.22;;;1.73;;
33268;SDS011;19640;50.944;5.260;2022-08-14T08:34:14;3.57;;;2.13;;
33268;SDS011;19640;50.944;5.260;2022-08-14T08:36:41;1.70;;;1.60;;
33268;SDS011;19640;50.944;5.260;2022-08-14T08:39:07;6.60;;;1.80;;
33268;SDS011;19640;50.944;5.260;2022-08-14T08:41:40;4.97;;;1.90;;
33268;SDS011;19640;50.944;5.260;2022-08-14T08:44:11;1.90;;;1.63;;
33268;SDS011;19640;50.944;5.260;2022-08-14T08:46:37;2.22;;;2.00;;
33268;SDS011;19640;50.944;5.260;2022-08-14T08:49:04;3.28;;;1.70;;
33268;SDS011;19640;50.944;5.260;2022-08-14T08:51:35;3.92;;;1.85;;
33268;SDS011;19640;50.944;5.260;2022-08-14T08:54:09;2.90;;;1.60;;
33268;SDS011;19640;50.944;5.260;2022-08-14T08:56:45;1.85;;;1.58;;
33268;SDS011;19640;50.944;5.260;2022-08-14T08:59:24;1.98;;;1.80;;
33268;SDS011;19640;50.944;5.260;2022-08-14T09:01:59;5.55;;;1.90;;
33268;SDS011;19640;50.944;5.260;2022-08-14T09:04:27;2.38;;;1.33;;
33268;SDS011;19640;50.944;5.260;2022-08-14T09:06:55;1.98;;;1.50;;
33268;SDS011;19640;50.944;5.260;2022-08-14T09:11:51;1.67;;;1.58;;
33268;SDS011;19640;50.944;5.260;2022-08-14T09:14:22;2.70;;;1.42;;
33268;SDS011;19640;50.944;5.260;2022-08-14T09:16:53;4.53;;;1.40;;
33268;SDS011;19640;50.944;5.260;2022-08-14T09:19:20;1.45;;;1.20;;
33268;SDS011;19640;50.944;5.260;2022-08-14T09:21:45;1.02;;;1.00;;
33268;SDS011;19640;50.944;5.260;2022-08-14T09:24:12;1.35;;;1.25;;
33268;SDS011;19640;50.944;5.260;2022-08-14T09:26:38;4.30;;;1.40;;
33268;SDS011;19640;50.944;5.260;2022-08-14T09:29:06;2.78;;;2.15;;
33268;SDS011;19640;50.944;5.260;2022-08-14T09:31:34;1.33;;;1.20;;
33268;SDS011;19640;50.944;5.260;2022-08-14T09:36:50;2.78;;;1.40;;
33268;SDS011;19640;50.944;5.260;2022-08-14T09:42:49;2.08;;;1.35;;
33268;SDS011;19640;50.944;5.260;2022-08-14T09:45:35;3.30;;;1.20;;
33268;SDS011;19640;50.944;5.260;2022-08-14T09:48:16;1.33;;;1.23;;
33268;SDS011;19640;50.944;5.260;2022-08-14T09:50:44;1.60;;;1.27;;
33268;SDS011;19640;50.944;5.260;2022-08-14T09:53:11;2.55;;;1.48;;
33268;SDS011;19640;50.944;5.260;2022-08-14T09:55:41;3.88;;;1.27;;
33268;SDS011;19640;50.944;5.260;2022-08-14T09:58:16;2.38;;;1.27;;
33268;SDS011;19640;50.944;5.260;2022-08-14T10:03:23;3.55;;;1.10;;
33268;SDS011;19640;50.944;5.260;2022-08-14T10:06:08;1.95;;;1.20;;
33268;SDS011;19640;50.944;5.260;2022-08-14T10:09:18;1.10;;;1.00;;
33268;SDS011;19640;50.944;5.260;2022-08-14T10:11:33;1.75;;;1.20;;
33268;SDS011;19640;50.944;5.260;2022-08-14T10:14:14;2.45;;;1.20;;
33268;SDS011;19640;50.944;5.260;2022-08-14T10:16:46;1.20;;;1.10;;
33268;SDS011;19640;50.944;5.260;2022-08-14T10:19:15;2.05;;;1.23;;
33268;SDS011;19640;50.944;5.260;2022-08-14T10:21:43;1.17;;;1.10;;
33268;SDS011;19640;50.944;5.260;2022-08-14T10:24:24;5.07;;;1.10;;
33268;SDS011;19640;50.944;5.260;2022-08-14T10:26:53;1.30;;;1.20;;
33268;SDS011;19640;50.944;5.260;2022-08-14T10:29:28;1.65;;;1.02;;
33268;SDS011;19640;50.944;5.260;2022-08-14T10:31:59;5.93;;;1.20;;
33268;SDS011;19640;50.944;5.260;2022-08-14T10:34:33;1.73;;;1.20;;
33268;SDS011;19640;50.944;5.260;2022-08-14T10:37:18;1.58;;;0.90;;
33268;SDS011;19640;50.944;5.260;2022-08-14T10:39:56;1.25;;;1.05;;
33268;SDS011;19640;50.944;5.260;2022-08-14T10:42:33;0.90;;;0.80;;
33268;SDS011;19640;50.944;5.260;2022-08-14T10:45:00;1.00;;;0.90;;
33268;SDS011;19640;50.944;5.260;2022-08-14T10:47:32;0.75;;;0.75;;
33268;SDS011;19640;50.944;5.260;2022-08-14T10:49:59;2.38;;;0.80;;
33268;SDS011;19640;50.944;5.260;2022-08-14T10:52:26;3.33;;;1.15;;
33268;SDS011;19640;50.944;5.260;2022-08-14T10:58:03;0.98;;;0.90;;
33268;SDS011;19640;50.944;5.260;2022-08-14T11:00:34;0.80;;;0.80;;
33268;SDS011;19640;50.944;5.260;2022-08-14T11:03:02;1.30;;;0.88;;
33268;SDS011;19640;50.944;5.260;2022-08-14T11:08:06;2.38;;;0.90;;
33268;SDS011;19640;50.944;5.260;2022-08-14T11:13:07;1.00;;;0.90;;
33268;SDS011;19640;50.944;5.260;2022-08-14T11:15:34;1.00;;;0.90;;
33268;SDS011;19640;50.944;5.260;2022-08-14T11:18:01;1.20;;;1.00;;
33268;SDS011;19640;50.944;5.260;2022-08-14T11:20:27;2.53;;;1.15;;
33268;SDS011;19640;50.944;5.260;2022-08-14T11:22:55;1.70;;;1.00;;
33268;SDS011;19640;50.944;5.260;2022-08-14T11:25:23;2.55;;;1.02;;
33268;SDS011;19640;50.944;5.260;2022-08-14T11:27:54;1.00;;;1.00;;
33268;SDS011;19640;50.944;5.260;2022-08-14T11:30:22;1.90;;;1.00;;
33268;SDS011;19640;50.944;5.260;2022-08-14T11:32:50;1.98;;;1.00;;
33268;SDS011;19640;50.944;5.260;2022-08-14T11:35:17;0.98;;;0.85;;
33268;SDS011;19640;50.944;5.260;2022-08-14T11:37:48;2.40;;;0.88;;
33268;SDS011;19640;50.944;5.260;2022-08-14T11:40:26;2.35;;;1.00;;
33268;SDS011;19640;50.944;5.260;2022-08-14T11:42:55;0.98;;;0.90;;
33268;SDS011;19640;50.944;5.260;2022-08-14T11:45:22;1.27;;;0.88;;
33268;SDS011;19640;50.944;5.260;2022-08-14T11:47:53;1.98;;;1.00;;
33268;SDS011;19640;50.944;5.260;2022-08-14T11:50:24;2.15;;;0.90;;
33268;SDS011;19640;50.944;5.260;2022-08-14T11:52:54;1.02;;;0.80;;
33268;SDS011;19640;50.944;5.260;2022-08-14T11:55:21;1.77;;;0.98;;
33268;SDS011;19640;50.944;5.260;2022-08-14T11:57:57;7.05;;;2.53;;
33268;SDS011;19640;50.944;5.260;2022-08-14T12:00:25;1.95;;;0.80;;
33268;SDS011;19640;50.944;5.260;2022-08-14T12:05:27;1.65;;;0.90;;
33268;SDS011;19640;50.944;5.260;2022-08-14T12:08:04;1.65;;;0.82;;
33268;SDS011;19640;50.944;5.260;2022-08-14T12:10:37;1.35;;;1.00;;
33268;SDS011;19640;50.944;5.260;2022-08-14T12:13:15;1.10;;;1.00;;
33268;SDS011;19640;50.944;5.260;2022-08-14T12:15:43;0.75;;;0.75;;
33268;SDS011;19640;50.944;5.260;2022-08-14T12:18:13;1.57;;;0.93;;
33268;SDS011;19640;50.944;5.260;2022-08-14T12:20:40;1.40;;;1.00;;
33268;SDS011;19640;50.944;5.260;2022-08-14T12:23:20;2.45;;;0.98;;
33268;SDS011;19640;50.944;5.260;2022-08-14T12:25:48;4.22;;;1.50;;
33268;SDS011;19640;50.944;5.260;2022-08-14T12:28:14;2.03;;;1.20;;
33268;SDS011;19640;50.944;5.260;2022-08-14T12:30:41;1.10;;;1.00;;
33268;SDS011;19640;50.944;5.260;2022-08-14T12:33:22;0.98;;;0.90;;
33268;SDS011;19640;50.944;5.260;2022-08-14T12:35:53;1.02;;;1.00;;
33268;SDS011;19640;50.944;5.260;2022-08-14T12:38:30;1.48;;;1.00;;
33268;SDS011;19640;50.944;5.260;2022-08-14T12:41:02;1.48;;;1.10;;
33268;SDS011;19640;50.944;5.260;2022-08-14T12:43:42;2.80;;;1.13;;
33268;SDS011;19640;50.944;5.260;2022-08-14T12:46:24;2.47;;;1.10;;
33268;SDS011;19640;50.944;5.260;2022-08-14T12:48:55;1.58;;;0.98;;
33268;SDS011;19640;50.944;5.260;2022-08-14T12:51:31;2.00;;;1.15;;
33268;SDS011;19640;50.944;5.260;2022-08-14T12:53:57;1.52;;;1.30;;
33268;SDS011;19640;50.944;5.260;2022-08-14T12:56:24;1.25;;;1.15;;
33268;SDS011;19640;50.944;5.260;2022-08-14T12:58:57;2.50;;;1.23;;
33268;SDS011;19640;50.944;5.260;2022-08-14T13:01:26;5.07;;;0.93;;
33268;SDS011;19640;50.944;5.260;2022-08-14T13:06:38;3.67;;;1.17;;
33268;SDS011;19640;50.944;5.260;2022-08-14T13:09:05;1.17;;;0.90;;
33268;SDS011;19640;50.944;5.260;2022-08-14T13:14:09;2.35;;;1.20;;
33268;SDS011;19640;50.944;5.260;2022-08-14T13:16:41;1.30;;;1.20;;
33268;SDS011;19640;50.944;5.260;2022-08-14T13:19:11;1.98;;;1.40;;
33268;SDS011;19640;50.944;5.260;2022-08-14T13:21:40;2.25;;;1.13;;
33268;SDS011;19640;50.944;5.260;2022-08-14T13:24:07;2.30;;;1.02;;
33268;SDS011;19640;50.944;5.260;2022-08-14T13:26:37;4.18;;;1.10;;
33268;SDS011;19640;50.944;5.260;2022-08-14T13:29:08;2.72;;;1.10;;
33268;SDS011;19640;50.944;5.260;2022-08-14T13:31:36;1.00;;;0.90;;
33268;SDS011;19640;50.944;5.260;2022-08-14T13:34:03;1.88;;;1.20;;
33268;SDS011;19640;50.944;5.260;2022-08-14T13:36:30;1.65;;;1.15;;
33268;SDS011;19640;50.944;5.260;2022-08-14T13:38:57;1.95;;;1.27;;
33268;SDS011;19640;50.944;5.260;2022-08-14T13:41:25;4.40;;;1.58;;
33268;SDS011;19640;50.944;5.260;2022-08-14T13:43:52;1.65;;;1.10;;
33268;SDS011;19640;50.944;5.260;2022-08-14T13:46:20;1.50;;;1.40;;
33268;SDS011;19640;50.944;5.260;2022-08-14T13:48:46;1.77;;;1.13;;
33268;SDS011;19640;50.944;5.260;2022-08-14T13:51:14;1.35;;;1.08;;
33268;SDS011;19640;50.944;5.260;2022-08-14T13:53:45;1.30;;;1.20;;
33268;SDS011;19640;50.944;5.260;2022-08-14T13:56:13;2.92;;;1.10;;
33268;SDS011;19640;50.944;5.260;2022-08-14T13:58:43;2.10;;;1.08;;
33268;SDS011;19640;50.944;5.260;2022-08-14T14:01:10;2.20;;;1.52;;
33268;SDS011;19640;50.944;5.260;2022-08-14T14:03:38;2.22;;;1.10;;
33268;SDS011;19640;50.944;5.260;2022-08-14T14:06:14;2.65;;;1.17;;
33268;SDS011;19640;50.944;5.260;2022-08-14T14:08:48;1.30;;;1.20;;
33268;SDS011;19640;50.944;5.260;2022-08-14T14:11:17;2.67;;;1.45;;
33268;SDS011;19640;50.944;5.260;2022-08-14T14:13:50;1.25;;;1.10;;
33268;SDS011;19640;50.944;5.260;2022-08-14T14:16:19;2.53;;;1.10;;
33268;SDS011;19640;50.944;5.260;2022-08-14T14:18:46;1.73;;;1.10;;
33268;SDS011;19640;50.944;5.260;2022-08-14T14:21:20;1.60;;;1.20;;
33268;SDS011;19640;50.944;5.260;2022-08-14T14:23:47;1.00;;;1.00;;
33268;SDS011;19640;50.944;5.260;2022-08-14T14:26:16;1.70;;;1.27;;
33268;SDS011;19640;50.944;5.260;2022-08-14T14:28:45;1.27;;;1.15;;
33268;SDS011;19640;50.944;5.260;2022-08-14T14:31:25;1.50;;;1.10;;
33268;SDS011;19640;50.944;5.260;2022-08-14T14:33:56;1.30;;;1.20;;
33268;SDS011;19640;50.944;5.260;2022-08-14T14:36:26;1.67;;;1.17;;
33268;SDS011;19640;50.944;5.260;2022-08-14T14:38:58;1.35;;;1.25;;
33268;SDS011;19640;50.944;5.260;2022-08-14T14:41:28;1.30;;;1.20;;
33268;SDS011;19640;50.944;5.260;2022-08-14T14:43:56;2.67;;;1.40;;
33268;SDS011;19640;50.944;5.260;2022-08-14T14:46:23;3.00;;;1.50;;
33268;SDS011;19640;50.944;5.260;2022-08-14T14:48:50;2.95;;;1.33;;
33268;SDS011;19640;50.944;5.260;2022-08-14T14:51:17;1.85;;;1.00;;
33268;SDS011;19640;50.944;5.260;2022-08-14T14:53:43;2.53;;;1.05;;
33268;SDS011;19640;50.944;5.260;2022-08-14T14:56:10;1.10;;;1.00;;
33268;SDS011;19640;50.944;5.260;2022-08-14T14:58:36;1.73;;;1.20;;
33268;SDS011;19640;50.944;5.260;2022-08-14T15:01:03;2.75;;;1.20;;
33268;SDS011;19640;50.944;5.260;2022-08-14T15:03:30;1.55;;;1.05;;
33268;SDS011;19640;50.944;5.260;2022-08-14T15:05:57;4.50;;;1.67;;
33268;SDS011;19640;50.944;5.260;2022-08-14T15:08:22;2.97;;;1.20;;
33268;SDS011;19640;50.944;5.260;2022-08-14T15:10:49;3.97;;;1.40;;
33268;SDS011;19640;50.944;5.260;2022-08-14T15:13:17;1.25;;;1.15;;
33268;SDS011;19640;50.944;5.260;2022-08-14T15:15:43;1.13;;;1.08;;
33268;SDS011;19640;50.944;5.260;2022-08-14T15:18:08;1.80;;;1.65;;
33268;SDS011;19640;50.944;5.260;2022-08-14T15:20:34;2.85;;;1.15;;
33268;SDS011;19640;50.944;5.260;2022-08-14T15:23:00;3.55;;;2.22;;
33268;SDS011;19640;50.944;5.260;2022-08-14T15:25:27;1.67;;;1.58;;
33268;SDS011;19640;50.944;5.260;2022-08-14T15:27:56;5.57;;;1.40;;
33268;SDS011;19640;50.944;5.260;2022-08-14T15:30:22;1.73;;;1.20;;